Marica, Brazil
Current Conditions -  °F | °C
As of 5:00 AM on Monday 20 Oct 2014 (Local Time) from SBRJ Reporting Station
Broken Clouds Broken Clouds  
Wind Chill: 75°   Ceiling: 9000
Heat Index: 75°   Visibility: 4mi
Dew Point: 70°   Wind: 7mph
Humidity: 83%   Direction: 320°NW
Pressure: 29.85"   Gusts: NA
Location:  22.92°S, 42.82°W
Report Text: SBRJ 200800Z 32006KT 7000 SCT020 BKN090 24/21 Q1011
Loading
Personal Weather Stations






























Interactive Weather Map
Tropical Storm Tracking
New forecast layout! Learn more

10-Day Weather Forecast

Advertisements
Track Severe Weather on mobile